createdAt,value
2024-03-12T00:01:42.114Z,53.88
2024-03-12T00:04:09.710Z,58.10
2024-03-12T00:06:37.794Z,55.20
2024-03-12T00:09:07.559Z,54.55
2024-03-12T00:11:35.747Z,53.50
2024-03-12T00:14:03.378Z,54.40
2024-03-12T00:16:34.345Z,54.50
2024-03-12T00:19:02.381Z,53.08
2024-03-12T00:21:30.450Z,56.20
2024-03-12T00:23:59.719Z,55.08
2024-03-12T00:26:26.963Z,55.35
2024-03-12T00:28:53.969Z,56.90
2024-03-12T00:31:22.022Z,56.17
2024-03-12T00:33:49.684Z,60.80
2024-03-12T00:36:17.990Z,60.33
2024-03-12T00:38:45.105Z,61.55
2024-03-12T00:41:12.368Z,61.38
2024-03-12T00:43:39.599Z,59.22
2024-03-12T00:46:06.998Z,61.72
2024-03-12T00:48:34.139Z,64.90
2024-03-12T00:51:01.402Z,64.72
2024-03-12T00:53:28.618Z,67.22
2024-03-12T00:55:55.821Z,69.88
2024-03-12T00:58:24.680Z,70.25
2024-03-12T01:00:54.519Z,67.60
2024-03-12T01:03:22.031Z,67.45
2024-03-12T01:05:49.784Z,72.35
2024-03-12T01:08:16.956Z,73.03
2024-03-12T01:10:44.372Z,67.57
2024-03-12T01:13:12.388Z,72.53
2024-03-12T01:15:41.292Z,72.28
2024-03-12T01:18:09.768Z,77.88
2024-03-12T01:20:37.669Z,74.18
2024-03-12T01:23:08.504Z,73.50
2024-03-12T01:25:38.093Z,78.97
2024-03-12T01:28:07.528Z,73.40
2024-03-12T01:30:36.320Z,76.85
2024-03-12T01:33:06.885Z,72.78
2024-03-12T01:35:40.134Z,69.45
2024-03-12T01:38:09.998Z,73.38
2024-03-12T01:40:37.549Z,68.82
2024-03-12T01:43:05.217Z,65.18
2024-03-12T01:45:37.119Z,65.60
2024-03-12T01:48:12.350Z,62.92
2024-03-12T01:50:40.785Z,57.00
2024-03-12T01:53:09.691Z,58.10
2024-03-12T01:55:39.246Z,58.75
2024-03-12T01:58:06.745Z,55.35
2024-03-12T02:00:34.845Z,53.38
2024-03-12T02:03:02.883Z,54.10
2024-03-12T02:05:30.120Z,53.72
2024-03-12T02:07:57.970Z,54.53
2024-03-12T02:10:26.201Z,50.35
2024-03-12T02:12:53.668Z,50.70
2024-03-12T02:15:24.223Z,50.28
2024-03-12T02:17:54.607Z,54.03
2024-03-12T02:20:23.250Z,50.92
2024-03-12T02:22:55.575Z,52.00
2024-03-12T02:25:24.400Z,55.30
2024-03-12T02:27:54.238Z,55.03
2024-03-12T02:30:22.602Z,52.17
2024-03-12T02:32:50.646Z,59.10
2024-03-12T02:35:18.451Z,67.65
2024-03-12T02:37:46.483Z,65.07
2024-03-12T02:40:15.212Z,61.80
2024-03-12T02:42:43.738Z,62.15
2024-03-12T02:45:16.247Z,62.55
2024-03-12T02:47:45.254Z,61.58
2024-03-12T02:50:12.731Z,64.38
2024-03-12T02:52:40.075Z,64.05
2024-03-12T02:55:08.033Z,68.70
2024-03-12T02:57:35.753Z,65.90
2024-03-12T03:00:12.432Z,67.47
2024-03-12T03:02:39.810Z,59.88
2024-03-12T03:05:08.493Z,64.28
2024-03-12T03:07:36.768Z,65.75
2024-03-12T03:10:07.517Z,69.03
2024-03-12T03:12:34.680Z,68.57
2024-03-12T03:15:01.720Z,68.22
2024-03-12T03:17:28.773Z,71.15
2024-03-12T03:19:55.792Z,66.63
2024-03-12T03:22:22.854Z,68.28
2024-03-12T03:24:51.000Z,68.50
2024-03-12T03:27:18.181Z,67.72
2024-03-12T03:29:45.750Z,72.53
2024-03-12T03:32:12.969Z,70.80
2024-03-12T03:34:40.145Z,73.32
2024-03-12T03:37:08.122Z,69.78
2024-03-12T03:39:38.186Z,75.28
2024-03-12T03:42:05.700Z,76.95
2024-03-12T03:44:32.740Z,77.05
2024-03-12T03:46:59.939Z,72.90
2024-03-12T03:49:26.969Z,79.22
2024-03-12T03:51:54.694Z,73.47
2024-03-12T03:54:22.143Z,77.03
2024-03-12T03:56:49.388Z,78.32
2024-03-12T03:59:17.132Z,89.22
2024-03-12T04:01:44.800Z,89.15
2024-03-12T04:04:14.247Z,83.30
2024-03-12T04:06:45.038Z,86.03
2024-03-12T04:09:13.023Z,88.22
2024-03-12T04:11:42.365Z,86.18
2024-03-12T04:14:10.252Z,91.25
2024-03-12T04:16:37.401Z,83.20
2024-03-12T04:19:06.113Z,81.05
2024-03-12T04:21:33.587Z,78.80
2024-03-12T04:24:01.382Z,77.05
2024-03-12T04:26:30.428Z,70.60
2024-03-12T04:28:58.306Z,65.30
2024-03-12T04:31:26.840Z,63.90
2024-03-12T04:33:54.517Z,63.72
2024-03-12T04:36:24.659Z,67.30
2024-03-12T04:38:51.949Z,68.93
2024-03-12T04:41:21.613Z,69.30
2024-03-12T04:43:49.692Z,65.22
2024-03-12T04:46:16.940Z,68.63
2024-03-12T04:48:46.278Z,64.78
2024-03-12T04:51:15.362Z,73.07
2024-03-12T04:53:42.756Z,69.38
2024-03-12T04:56:09.898Z,69.97
2024-03-12T04:58:38.018Z,73.03
2024-03-12T05:01:07.430Z,71.30
2024-03-12T05:03:35.827Z,63.38
2024-03-12T05:06:03.358Z,65.55
2024-03-12T05:08:30.438Z,63.92
2024-03-12T05:10:59.636Z,65.47
2024-03-12T05:13:28.281Z,63.10
2024-03-12T05:15:55.375Z,64.95
2024-03-12T05:18:22.525Z,60.85
2024-03-12T05:20:52.185Z,66.55
2024-03-12T05:23:19.484Z,60.00
2024-03-12T05:25:47.763Z,63.90
2024-03-12T05:28:15.102Z,62.20
2024-03-12T05:30:43.617Z,67.65
2024-03-12T05:33:13.370Z,63.40
2024-03-12T05:35:48.305Z,64.53
2024-03-12T05:38:34.954Z,65.95
2024-03-12T05:41:11.186Z,63.78
2024-03-12T05:43:57.264Z,62.05
2024-03-12T05:46:44.949Z,64.38
2024-03-12T05:49:12.650Z,64.35
2024-03-12T05:51:40.130Z,64.70
2024-03-12T05:54:07.668Z,62.75
2024-03-12T05:56:36.409Z,72.07
2024-03-12T05:59:03.787Z,63.53
2024-03-12T06:01:32.316Z,67.57
2024-03-12T06:03:59.859Z,66.28
2024-03-12T06:06:27.829Z,64.13
2024-03-12T06:08:54.988Z,66.18
2024-03-12T06:11:22.190Z,66.15
2024-03-12T06:13:49.263Z,67.13
2024-03-12T06:16:19.954Z,62.80
2024-03-12T06:18:47.311Z,58.15
2024-03-12T06:21:14.396Z,61.28
2024-03-12T06:23:41.889Z,60.20
2024-03-12T06:26:09.094Z,62.00
2024-03-12T06:28:37.107Z,64.10
2024-03-12T06:31:05.288Z,63.03
2024-03-12T06:33:33.560Z,60.95
2024-03-12T06:36:01.003Z,62.25
2024-03-12T06:38:28.136Z,60.83
2024-03-12T06:40:55.233Z,63.63
2024-03-12T06:43:23.310Z,57.83
2024-03-12T06:45:50.796Z,60.75
2024-03-12T06:48:20.533Z,62.13
2024-03-12T06:50:47.816Z,65.75
2024-03-12T06:53:16.239Z,59.22
2024-03-12T06:55:43.881Z,60.50
2024-03-12T06:58:13.251Z,66.43
2024-03-12T07:00:46.320Z,64.43
2024-03-12T07:03:15.623Z,69.85
2024-03-12T07:05:48.660Z,61.90
2024-03-12T07:08:18.751Z,68.22
2024-03-12T07:10:46.868Z,65.35
2024-03-12T07:13:14.671Z,71.28
2024-03-12T07:15:43.753Z,74.22
2024-03-12T07:18:11.316Z,75.85
2024-03-12T07:20:38.830Z,78.25
2024-03-12T07:23:06.941Z,74.00
2024-03-12T07:25:34.733Z,77.78
2024-03-12T07:28:07.382Z,79.50
2024-03-12T07:30:36.216Z,80.75
2024-03-12T07:33:04.458Z,86.85
2024-03-12T07:35:35.545Z,86.15
2024-03-12T07:38:04.616Z,100.22
2024-03-12T07:40:33.376Z,105.18
2024-03-12T07:43:00.960Z,97.65
2024-03-12T07:45:29.117Z,105.47
2024-03-12T07:47:57.422Z,102.30
2024-03-12T07:50:29.884Z,104.00
2024-03-12T07:52:57.368Z,99.38
2024-03-12T07:55:25.292Z,88.30
2024-03-12T07:57:52.392Z,81.95
2024-03-12T08:00:20.498Z,84.30
2024-03-12T08:02:47.913Z,80.18
2024-03-12T08:05:15.081Z,75.82
2024-03-12T08:07:45.416Z,69.68
2024-03-12T08:10:13.526Z,65.72
2024-03-12T08:12:41.414Z,62.88
2024-03-12T08:15:14.250Z,56.28
2024-03-12T08:17:41.872Z,52.97
2024-03-12T08:20:14.845Z,53.08
2024-03-12T08:22:42.164Z,50.33
2024-03-12T08:25:12.264Z,44.75
2024-03-12T08:27:42.730Z,47.33
2024-03-12T08:30:10.663Z,46.13
2024-03-12T08:32:37.948Z,42.70
2024-03-12T08:35:06.400Z,41.33
2024-03-12T08:37:37.618Z,45.28
2024-03-12T08:40:08.826Z,45.38
2024-03-12T08:42:44.636Z,41.42
2024-03-12T08:45:20.627Z,38.72
2024-03-12T08:47:49.695Z,34.80
2024-03-12T08:50:18.250Z,35.42
2024-03-12T08:52:45.373Z,30.52
2024-03-12T08:55:12.526Z,28.58
2024-03-12T08:57:40.067Z,26.55
2024-03-12T09:00:13.421Z,27.52
2024-03-12T09:02:40.973Z,27.67
2024-03-12T09:05:08.952Z,27.08
2024-03-12T09:07:39.263Z,22.83
2024-03-12T09:10:12.449Z,23.15
2024-03-12T09:12:42.142Z,22.25
2024-03-12T09:15:10.711Z,22.58
2024-03-12T09:17:39.827Z,21.63
2024-03-12T09:20:11.495Z,21.40
2024-03-12T09:22:39.264Z,21.52
2024-03-12T09:25:07.528Z,22.25
2024-03-12T09:27:35.147Z,22.20
2024-03-12T09:30:04.387Z,20.92
2024-03-12T09:32:31.506Z,17.48
2024-03-12T09:34:59.142Z,15.70
2024-03-12T09:37:28.341Z,16.13
2024-03-12T09:39:55.596Z,15.60
2024-03-12T09:42:27.132Z,17.95
2024-03-12T09:44:54.853Z,15.55
2024-03-12T09:47:22.191Z,16.00
2024-03-12T09:49:50.294Z,15.93
2024-03-12T09:52:17.693Z,17.55
2024-03-12T09:54:45.737Z,16.50
2024-03-12T09:57:13.889Z,16.13
2024-03-12T09:59:41.538Z,14.70
2024-03-12T10:02:13.406Z,15.65
2024-03-12T10:04:40.573Z,14.95
2024-03-12T10:07:08.153Z,16.05
2024-03-12T10:09:35.473Z,17.52
2024-03-12T10:12:03.456Z,15.18
2024-03-12T10:14:34.946Z,16.13
2024-03-12T10:17:15.609Z,17.38
2024-03-12T10:19:50.092Z,17.52
2024-03-12T10:22:22.577Z,21.45
2024-03-12T10:24:50.645Z,20.40
2024-03-12T10:27:17.906Z,21.60
2024-03-12T10:29:45.547Z,22.33
2024-03-12T10:32:29.152Z,23.50
2024-03-12T10:34:57.316Z,25.25
2024-03-12T10:37:33.495Z,23.88
2024-03-12T10:40:21.906Z,25.70
2024-03-12T10:42:59.077Z,24.42
2024-03-12T10:45:28.352Z,27.63
2024-03-12T10:47:57.901Z,26.75
2024-03-12T10:50:26.929Z,29.25
2024-03-12T10:52:55.985Z,28.27
2024-03-12T10:55:23.677Z,30.60
2024-03-12T10:57:56.065Z,31.95
2024-03-12T11:00:27.082Z,31.80
2024-03-12T11:02:55.343Z,29.33
2024-03-12T11:05:28.315Z,32.20
2024-03-12T11:07:58.954Z,32.75
2024-03-12T11:10:31.629Z,33.17
2024-03-12T11:13:03.393Z,34.95
2024-03-12T11:15:32.762Z,34.25
2024-03-12T11:18:00.023Z,38.60
2024-03-12T11:20:29.036Z,38.75
2024-03-12T11:23:02.121Z,37.40
2024-03-12T11:25:49.650Z,37.83
2024-03-12T11:28:27.513Z,40.25
2024-03-12T11:31:05.624Z,41.47
2024-03-12T11:33:47.240Z,40.58
2024-03-12T11:36:42.574Z,37.90
2024-03-12T11:39:15.945Z,40.80
2024-03-12T11:42:07.123Z,36.63
2024-03-12T11:44:54.575Z,38.65
2024-03-12T11:47:41.335Z,39.60
2024-03-12T11:50:35.829Z,33.75
2024-03-12T11:53:21.510Z,35.65
2024-03-12T11:56:09.021Z,39.22
2024-03-12T11:58:49.357Z,34.60
2024-03-12T12:01:40.193Z,34.22
2024-03-12T12:04:13.610Z,34.17
2024-03-12T12:06:40.873Z,37.20
2024-03-12T12:09:10.432Z,37.97
2024-03-12T12:11:41.782Z,35.53
2024-03-12T12:14:10.896Z,38.15
2024-03-12T12:16:39.563Z,35.72
2024-03-12T12:19:13.472Z,37.28
2024-03-12T12:21:44.240Z,36.75
2024-03-12T12:24:12.514Z,40.22
2024-03-12T12:26:40.294Z,36.67
2024-03-12T12:29:10.847Z,38.38
2024-03-12T12:31:38.815Z,35.22
2024-03-12T12:34:07.856Z,41.38
2024-03-12T12:36:41.878Z,37.25
2024-03-12T12:39:11.855Z,32.58
2024-03-12T12:41:44.953Z,38.95
2024-03-12T12:44:23.237Z,34.55
2024-03-12T12:46:54.092Z,34.35
2024-03-12T12:49:22.582Z,36.70
2024-03-12T12:51:51.605Z,40.72
2024-03-12T12:54:22.904Z,33.88
2024-03-12T12:56:51.691Z,38.45
2024-03-12T12:59:23.011Z,36.15
2024-03-12T13:01:51.040Z,36.83
2024-03-12T13:04:28.315Z,37.33
2024-03-12T13:06:58.251Z,37.08
2024-03-12T13:09:35.163Z,36.53
2024-03-12T13:12:08.777Z,37.75
2024-03-12T13:14:39.247Z,38.72
2024-03-12T13:17:10.093Z,38.72
2024-03-12T13:19:37.814Z,41.60
2024-03-12T13:22:10.662Z,38.78
2024-03-12T13:24:45.022Z,39.63
2024-03-12T13:27:14.515Z,38.70
2024-03-12T13:29:44.420Z,36.67
2024-03-12T13:32:11.638Z,34.65
2024-03-12T13:34:38.962Z,32.55
2024-03-12T13:37:08.423Z,33.70
2024-03-12T13:39:35.918Z,33.50
2024-03-12T13:42:06.735Z,33.92
2024-03-12T13:44:34.320Z,28.27
2024-03-12T13:47:04.148Z,28.05
2024-03-12T13:49:31.369Z,28.67
2024-03-12T13:51:59.665Z,25.73
2024-03-12T13:54:28.386Z,27.50
2024-03-12T13:56:56.073Z,26.70
2024-03-12T13:59:23.478Z,26.35
2024-03-12T14:01:50.877Z,25.75
2024-03-12T14:04:18.674Z,28.80
2024-03-12T14:06:47.637Z,29.95
2024-03-12T14:09:16.189Z,26.95
2024-03-12T14:11:43.589Z,29.33
2024-03-12T14:14:10.949Z,27.33
2024-03-12T14:16:38.197Z,30.98
2024-03-12T14:19:05.528Z,29.67
2024-03-12T14:21:34.127Z,30.52
2024-03-12T14:24:03.874Z,27.13
2024-03-12T14:26:31.130Z,28.15
2024-03-12T14:28:58.199Z,29.17
2024-03-12T14:31:26.197Z,28.65
2024-03-12T14:33:53.466Z,29.17
2024-03-12T14:36:20.872Z,31.75
2024-03-12T14:38:50.858Z,26.98
2024-03-12T14:41:21.689Z,29.40
2024-03-12T14:43:48.849Z,28.55
2024-03-12T14:46:18.622Z,26.38
2024-03-12T14:48:46.040Z,28.67
2024-03-12T14:51:13.285Z,29.33
2024-03-12T14:53:40.828Z,28.92
2024-03-12T14:56:08.185Z,28.52
2024-03-12T14:58:35.446Z,26.33
2024-03-12T15:01:02.978Z,26.90
2024-03-12T15:03:31.657Z,27.02
2024-03-12T15:05:58.880Z,27.10
2024-03-12T15:08:26.077Z,24.55
2024-03-12T15:10:53.525Z,26.10
2024-03-12T15:13:21.634Z,26.75
2024-03-12T15:15:49.331Z,26.00
2024-03-12T15:18:18.314Z,26.38
2024-03-12T15:20:47.479Z,29.63
2024-03-12T15:23:15.674Z,30.00
2024-03-12T15:25:43.092Z,27.25
2024-03-12T15:28:10.635Z,29.20
2024-03-12T15:30:40.195Z,26.95
2024-03-12T15:33:09.185Z,28.30
2024-03-12T15:35:37.521Z,31.75
2024-03-12T15:38:06.160Z,26.35
2024-03-12T15:40:33.788Z,28.98
2024-03-12T15:43:01.892Z,29.05
2024-03-12T15:45:29.434Z,32.17
2024-03-12T15:47:56.648Z,30.48
2024-03-12T15:50:27.490Z,33.25
2024-03-12T15:52:58.181Z,34.75
2024-03-12T15:55:27.159Z,29.80
2024-03-12T15:57:55.790Z,29.60
2024-03-12T16:00:23.570Z,30.00
2024-03-12T16:02:52.303Z,30.17
2024-03-12T16:05:20.153Z,31.10
2024-03-12T16:07:49.051Z,29.27
2024-03-12T16:10:16.677Z,27.58
2024-03-12T16:12:46.458Z,26.77
2024-03-12T16:15:19.057Z,30.55
2024-03-12T16:17:46.216Z,28.02
2024-03-12T16:20:20.197Z,26.73
2024-03-12T16:22:47.754Z,27.73
2024-03-12T16:25:14.967Z,26.27
2024-03-12T16:27:46.370Z,31.20
2024-03-12T16:30:15.720Z,27.00
2024-03-12T16:32:44.472Z,32.80
2024-03-12T16:35:12.108Z,28.77
2024-03-12T16:37:39.434Z,32.53
2024-03-12T16:40:09.320Z,29.70
2024-03-12T16:42:37.662Z,33.28
2024-03-12T16:45:06.719Z,34.65
2024-03-12T16:47:34.128Z,33.90
2024-03-12T16:50:05.663Z,34.55
2024-03-12T16:52:33.355Z,36.95
2024-03-12T16:55:02.089Z,34.72
2024-03-12T16:57:29.873Z,36.25
2024-03-12T16:59:57.647Z,36.75
2024-03-12T17:02:27.501Z,35.08
2024-03-12T17:04:57.541Z,34.88
2024-03-12T17:07:29.217Z,35.22
2024-03-12T17:09:58.489Z,36.70
2024-03-12T17:12:27.401Z,33.47
2024-03-12T17:14:55.312Z,37.10
2024-03-12T17:17:25.866Z,36.55
2024-03-12T17:19:53.709Z,37.63
2024-03-12T17:22:21.363Z,36.13
2024-03-12T17:24:51.944Z,37.65
2024-03-12T17:27:20.306Z,37.50
2024-03-12T17:29:48.737Z,38.13
2024-03-12T17:32:16.880Z,39.72
2024-03-12T17:34:44.719Z,39.33
2024-03-12T17:37:20.323Z,38.63
2024-03-12T17:39:48.004Z,37.35
2024-03-12T17:42:21.722Z,38.67
2024-03-12T17:44:49.684Z,38.58
2024-03-12T17:47:22.031Z,35.53
2024-03-12T17:49:52.839Z,38.22
2024-03-12T17:52:20.512Z,37.92
2024-03-12T17:54:48.224Z,38.20
2024-03-12T17:57:16.016Z,39.35
2024-03-12T17:59:46.579Z,39.85
2024-03-12T18:02:14.797Z,38.13
2024-03-12T18:04:43.474Z,37.63
2024-03-12T18:07:25.761Z,39.15
2024-03-12T18:09:56.629Z,36.97
2024-03-12T18:12:24.456Z,38.42
2024-03-12T18:14:51.660Z,36.15
2024-03-12T18:17:21.820Z,39.33
2024-03-12T18:19:49.064Z,42.50
2024-03-12T18:22:19.900Z,42.58
2024-03-12T18:24:47.271Z,41.00
2024-03-12T18:27:15.006Z,40.83
2024-03-12T18:29:45.996Z,42.22
2024-03-12T18:32:15.617Z,42.72
2024-03-12T18:34:43.855Z,40.03
2024-03-12T18:37:11.086Z,41.08
2024-03-12T18:39:38.470Z,43.17
2024-03-12T18:42:06.930Z,42.35
2024-03-12T18:44:34.163Z,46.08
2024-03-12T18:47:03.011Z,45.90
2024-03-12T18:49:30.508Z,42.58
2024-03-12T18:52:01.444Z,42.08
2024-03-12T18:54:30.580Z,45.97
2024-03-12T18:56:58.046Z,44.33
2024-03-12T18:59:26.425Z,44.38
2024-03-12T19:02:03.116Z,43.58
2024-03-12T19:04:34.041Z,46.00
2024-03-12T19:07:01.897Z,46.97
2024-03-12T19:09:32.255Z,48.78
2024-03-12T19:12:01.592Z,48.78
2024-03-12T19:14:31.383Z,49.58
2024-03-12T19:17:01.933Z,46.85
2024-03-12T19:19:30.677Z,49.50
2024-03-12T19:21:58.618Z,52.03
2024-03-12T19:24:26.186Z,48.22
2024-03-12T19:26:53.411Z,49.25
2024-03-12T19:29:22.566Z,54.60
2024-03-12T19:31:50.602Z,50.85
2024-03-12T19:34:20.818Z,51.05
2024-03-12T19:36:49.142Z,50.03
2024-03-12T19:39:16.661Z,49.85
2024-03-12T19:41:45.977Z,52.03
2024-03-12T19:44:14.057Z,51.75
2024-03-12T19:46:41.914Z,53.47
2024-03-12T19:49:16.043Z,52.97
2024-03-12T19:51:43.696Z,54.03
2024-03-12T19:54:16.894Z,54.67
2024-03-12T19:56:44.052Z,53.10
2024-03-12T19:59:11.235Z,58.30
2024-03-12T20:01:39.105Z,55.22
2024-03-12T20:04:06.474Z,54.40
2024-03-12T20:06:36.253Z,54.83
2024-03-12T20:09:22.633Z,54.88
2024-03-12T20:11:54.026Z,53.00
2024-03-12T20:14:24.869Z,54.38
2024-03-12T20:16:52.427Z,54.92
2024-03-12T20:19:19.883Z,57.65
2024-03-12T20:21:46.986Z,57.92
2024-03-12T20:24:14.399Z,56.53
2024-03-12T20:26:43.407Z,54.53
2024-03-12T20:29:13.047Z,57.95
2024-03-12T20:31:41.471Z,58.58
2024-03-12T20:34:09.740Z,59.20
2024-03-12T20:36:37.161Z,58.03
2024-03-12T20:39:12.451Z,59.10
2024-03-12T20:41:40.159Z,58.30
2024-03-12T20:44:07.358Z,56.00
2024-03-12T20:46:34.826Z,58.33
2024-03-12T20:49:01.977Z,59.63
2024-03-12T20:51:30.494Z,60.78
2024-03-12T20:53:59.658Z,58.80
2024-03-12T20:56:26.941Z,62.13
2024-03-12T20:58:54.096Z,60.03
2024-03-12T21:01:22.371Z,61.00
2024-03-12T21:03:49.954Z,56.15
2024-03-12T21:06:17.150Z,59.20
2024-03-12T21:08:46.909Z,57.38
2024-03-12T21:11:15.729Z,63.83
2024-03-12T21:13:43.068Z,61.75
2024-03-12T21:16:16.482Z,64.78
2024-03-12T21:18:44.369Z,65.80
2024-03-12T21:21:16.239Z,64.65
2024-03-12T21:23:46.049Z,65.25
2024-03-12T21:26:19.593Z,66.43
2024-03-12T21:28:46.864Z,65.78
2024-03-12T21:31:17.650Z,66.60
2024-03-12T21:33:45.739Z,66.13
2024-03-12T21:36:14.677Z,62.47
2024-03-12T21:38:41.904Z,63.97
2024-03-12T21:41:14.146Z,66.57
2024-03-12T21:43:41.282Z,64.47
2024-03-12T21:46:08.466Z,68.32
2024-03-12T21:48:35.730Z,63.63
2024-03-12T21:51:03.140Z,64.97
2024-03-12T21:53:30.240Z,64.95
2024-03-12T21:55:57.545Z,66.68
2024-03-12T21:58:25.962Z,68.30
2024-03-12T22:00:53.758Z,65.88
2024-03-12T22:03:20.904Z,63.75
2024-03-12T22:05:48.076Z,64.40
2024-03-12T22:08:15.444Z,68.85
2024-03-12T22:10:42.637Z,66.43
2024-03-12T22:13:10.809Z,62.60
2024-03-12T22:15:40.981Z,62.42
2024-03-12T22:18:08.180Z,62.65
2024-03-12T22:20:35.804Z,66.60
2024-03-12T22:23:02.857Z,61.97
2024-03-12T22:25:30.747Z,63.05
2024-03-12T22:27:57.975Z,66.40
2024-03-12T22:30:25.412Z,66.18
2024-03-12T22:32:53.071Z,64.28
2024-03-12T22:35:20.416Z,62.65
2024-03-12T22:37:49.407Z,62.72
2024-03-12T22:40:17.928Z,60.67
2024-03-12T22:42:45.305Z,56.03
2024-03-12T22:45:13.247Z,59.00
2024-03-12T22:47:40.988Z,57.03
2024-03-12T22:50:09.798Z,54.70
2024-03-12T22:52:37.697Z,58.20
2024-03-12T22:55:05.764Z,61.55
2024-03-12T22:57:36.930Z,57.25
2024-03-12T23:00:31.345Z,56.30
2024-03-12T23:03:04.436Z,55.72
2024-03-12T23:05:34.930Z,57.78
2024-03-12T23:08:07.141Z,63.08
2024-03-12T23:10:36.505Z,56.55
2024-03-12T23:13:04.940Z,59.97
2024-03-12T23:15:32.688Z,61.10
2024-03-12T23:18:04.004Z,59.13
2024-03-12T23:20:32.234Z,55.45
2024-03-12T23:22:59.337Z,57.85
2024-03-12T23:25:26.682Z,55.65
2024-03-12T23:27:56.270Z,58.53
2024-03-12T23:30:23.387Z,61.80
2024-03-12T23:32:52.823Z,58.15
2024-03-12T23:35:20.096Z,61.42
2024-03-12T23:37:47.208Z,64.97
2024-03-12T23:40:14.296Z,61.22
2024-03-12T23:42:41.773Z,58.15
2024-03-12T23:45:09.986Z,63.10
2024-03-12T23:47:46.129Z,62.10
2024-03-12T23:50:13.459Z,61.30
2024-03-12T23:52:41.278Z,63.60
2024-03-12T23:55:09.940Z,61.90
2024-03-12T23:57:38.209Z,62.17
